createdAt,value
2023-04-02T02:45:29.638Z,2.33
2023-04-02T02:55:09.583Z,1.67
2023-04-02T02:58:11.188Z,1.70
2023-04-02T03:00:49.821Z,1.40
2023-04-02T03:03:24.164Z,1.30
2023-04-02T03:06:10.639Z,2.38
2023-04-02T03:09:05.877Z,3.20
2023-04-02T03:11:44.634Z,1.60
2023-04-02T03:14:24.639Z,1.80
2023-04-02T03:17:05.166Z,2.00
2023-04-02T03:19:47.663Z,10.20
2023-04-02T03:22:41.246Z,6.07
2023-04-02T03:25:47.214Z,2.08
2023-04-02T03:28:22.328Z,1.85
2023-04-02T03:31:24.175Z,0.90
2023-04-02T03:33:58.431Z,1.45
2023-04-02T03:36:36.608Z,0.82
2023-04-02T03:39:11.972Z,1.23
2023-04-02T03:41:52.821Z,0.80
2023-04-02T03:44:39.691Z,1.20
2023-04-02T03:47:20.046Z,1.00
2023-04-02T03:50:01.781Z,0.90
2023-04-02T03:52:32.492Z,1.45
2023-04-02T03:55:11.099Z,0.90
2023-04-02T03:57:45.255Z,0.90
2023-04-02T04:00:31.000Z,0.85
2023-04-02T04:03:17.358Z,2.20
2023-04-02T04:06:09.163Z,0.73
2023-04-02T04:08:53.021Z,1.98
2023-04-02T04:11:32.748Z,1.00
2023-04-02T04:14:15.267Z,1.08
2023-04-02T04:17:05.838Z,1.30
2023-04-02T04:20:09.827Z,1.00
2023-04-02T04:22:39.064Z,2.13
2023-04-02T04:25:24.095Z,1.08
2023-04-02T04:28:14.014Z,1.80
2023-04-02T04:31:00.958Z,1.00
2023-04-02T04:33:40.900Z,0.90
2023-04-02T04:36:36.278Z,1.00
2023-04-02T04:39:19.197Z,1.33
2023-04-02T04:41:53.248Z,1.50
2023-04-02T04:44:51.370Z,0.80
2023-04-02T04:47:43.344Z,1.20
2023-04-02T04:50:33.174Z,1.13
2023-04-02T04:53:15.685Z,1.30
2023-04-02T04:55:49.058Z,1.45
2023-04-02T04:58:29.060Z,0.90
2023-04-02T05:01:29.477Z,1.63
2023-04-02T05:04:21.321Z,1.67
2023-04-02T05:06:56.117Z,1.00
2023-04-02T05:09:37.523Z,1.40
2023-04-02T05:12:25.999Z,1.08
2023-04-02T05:15:04.253Z,1.63
2023-04-02T05:17:39.553Z,1.40
2023-04-02T05:20:36.092Z,2.47
2023-04-02T05:23:16.367Z,1.77
2023-04-02T05:26:10.897Z,1.10
2023-04-02T05:28:44.831Z,2.30
2023-04-02T05:31:20.904Z,1.20
2023-04-02T05:33:51.326Z,1.92
2023-04-02T05:36:26.698Z,1.30
2023-04-02T05:39:00.212Z,2.53
2023-04-02T05:41:44.189Z,1.73
2023-04-02T05:44:44.035Z,2.30
2023-04-02T05:47:28.622Z,2.20
2023-04-02T05:50:17.913Z,2.10
2023-04-02T05:53:04.852Z,2.67
2023-04-02T05:55:43.761Z,1.80
2023-04-02T05:58:35.466Z,2.63
2023-04-02T06:01:22.246Z,1.95
2023-04-02T06:04:05.115Z,2.08
2023-04-02T06:06:46.397Z,1.50
2023-04-02T06:09:32.870Z,2.10
2023-04-02T06:12:52.788Z,3.60
2023-04-02T06:15:25.299Z,2.45
2023-04-02T06:18:21.752Z,2.60
2023-04-02T06:20:54.151Z,2.22
2023-04-02T06:23:33.840Z,1.90
2023-04-02T06:26:06.586Z,2.35
2023-04-02T06:28:55.084Z,2.05
2023-04-02T06:32:10.202Z,3.00
2023-04-02T06:34:45.236Z,3.50
2023-04-02T06:37:30.368Z,2.72
2023-04-02T06:40:36.720Z,3.58
2023-04-02T06:43:41.431Z,3.90
2023-04-02T06:46:52.432Z,3.70
2023-04-02T06:49:30.096Z,3.80
2023-04-02T06:52:06.304Z,3.33
2023-04-02T06:54:36.236Z,3.40
2023-04-02T06:57:12.034Z,3.85
2023-04-02T06:59:44.337Z,3.80
2023-04-02T07:02:36.826Z,3.30
2023-04-02T07:05:10.941Z,3.00
2023-04-02T07:07:44.972Z,4.07
2023-04-02T07:10:15.114Z,3.42
2023-04-02T07:12:44.577Z,3.70
2023-04-02T07:15:18.607Z,3.28
2023-04-02T07:17:48.483Z,3.67
2023-04-02T07:20:34.001Z,3.20
2023-04-02T07:23:07.154Z,4.90
2023-04-02T07:25:36.477Z,4.25
2023-04-02T07:28:07.234Z,4.45
2023-04-02T07:30:37.392Z,3.75
2023-04-02T07:33:06.866Z,2.97
2023-04-02T07:35:36.979Z,3.47
2023-04-02T07:38:06.462Z,5.05
2023-04-02T07:40:35.916Z,4.50
2023-04-02T07:43:05.737Z,6.03
2023-04-02T07:45:35.020Z,4.00
2023-04-02T07:48:12.672Z,3.55
2023-04-02T07:50:41.764Z,3.90
2023-04-02T07:53:28.856Z,3.40
2023-04-02T07:56:00.515Z,4.80
2023-04-02T07:58:33.512Z,4.25
2023-04-02T08:01:04.555Z,5.07
2023-04-02T08:03:33.758Z,4.50
2023-04-02T08:06:02.758Z,6.85
2023-04-02T08:08:31.947Z,6.13
2023-04-02T08:11:01.513Z,4.60
2023-04-02T08:13:31.527Z,3.80
2023-04-02T08:16:02.550Z,3.40
2023-04-02T08:18:31.923Z,3.25
2023-04-02T08:21:02.354Z,4.68
2023-04-02T08:23:32.799Z,5.47
2023-04-02T08:26:02.332Z,4.35
2023-04-02T08:28:32.172Z,5.05
2023-04-02T08:31:02.240Z,4.77
2023-04-02T08:33:32.969Z,4.57
2023-04-02T08:36:03.973Z,5.03
2023-04-02T08:38:33.188Z,4.80
2023-04-02T08:41:06.220Z,4.18
2023-04-02T08:43:54.871Z,3.40
2023-04-02T08:46:52.258Z,4.53
2023-04-02T08:49:53.352Z,4.28
2023-04-02T08:52:32.273Z,5.60
2023-04-02T08:55:03.575Z,4.60
2023-04-02T08:58:19.751Z,4.43
2023-04-02T09:00:52.674Z,5.03
2023-04-02T09:03:30.799Z,5.78
2023-04-02T09:06:04.150Z,5.40
2023-04-02T09:08:34.616Z,5.75
2023-04-02T09:11:07.284Z,5.00
2023-04-02T09:13:44.946Z,5.75
2023-04-02T09:16:24.075Z,4.93
2023-04-02T09:18:55.106Z,6.93
2023-04-02T09:21:46.702Z,5.75
2023-04-02T09:24:15.995Z,5.43
2023-04-02T09:26:44.629Z,4.15
2023-04-02T09:29:15.218Z,8.50
2023-04-02T09:32:00.121Z,4.32
2023-04-02T09:34:31.923Z,6.00
2023-04-02T09:37:26.803Z,7.90
2023-04-02T09:40:17.623Z,4.50
2023-04-02T09:42:48.324Z,6.20
2023-04-02T09:45:25.811Z,6.90
2023-04-02T09:47:57.264Z,6.65
2023-04-02T09:50:33.248Z,7.07
2023-04-02T09:53:42.422Z,6.20
2023-04-02T09:56:24.050Z,9.48
2023-04-02T09:59:16.842Z,12.35
2023-04-02T10:01:52.653Z,14.20
2023-04-02T10:04:45.829Z,26.02
2023-04-02T10:07:39.178Z,21.92
2023-04-02T10:10:29.527Z,16.67
2023-04-02T10:13:49.811Z,17.85
2023-04-02T10:16:21.009Z,15.85
2023-04-02T10:19:03.678Z,19.00
2023-04-02T10:21:45.615Z,16.27
2023-04-02T10:24:18.602Z,16.10
2023-04-02T10:27:03.996Z,18.42
2023-04-02T10:30:15.594Z,17.90
2023-04-02T10:32:53.827Z,18.52
2023-04-02T10:35:35.392Z,19.77
2023-04-02T10:38:11.513Z,15.93
2023-04-02T10:40:46.711Z,14.77
2023-04-02T10:43:41.744Z,13.90
2023-04-02T10:46:45.647Z,18.02
2023-04-02T10:49:43.043Z,17.90
2023-04-02T10:52:17.874Z,15.50
2023-04-02T10:55:15.929Z,26.33
2023-04-02T10:57:47.262Z,13.82
2023-04-02T11:00:36.093Z,18.10
2023-04-02T11:03:15.057Z,16.80
2023-04-02T11:05:47.768Z,18.08
2023-04-02T11:08:42.236Z,19.35
2023-04-02T11:11:20.339Z,19.15
2023-04-02T11:13:52.801Z,18.15
2023-04-02T11:16:23.039Z,20.05
2023-04-02T11:19:17.405Z,18.17
2023-04-02T11:21:58.575Z,18.48
2023-04-02T11:24:39.618Z,20.03
2023-04-02T11:27:15.802Z,19.27
2023-04-02T11:30:01.091Z,20.65
2023-04-02T11:32:50.718Z,21.42
2023-04-02T11:35:33.259Z,16.70
2023-04-02T11:38:12.399Z,17.00
2023-04-02T11:40:59.615Z,20.95
2023-04-02T11:43:35.283Z,22.38
2023-04-02T11:46:06.006Z,21.75
2023-04-02T11:48:37.756Z,18.85
2023-04-02T11:51:23.379Z,21.48
2023-04-02T11:53:55.024Z,24.20
2023-04-02T11:56:45.656Z,24.30
2023-04-02T11:59:39.470Z,20.95
2023-04-02T12:02:22.932Z,24.95
2023-04-02T12:05:10.125Z,22.48
2023-04-02T12:07:58.096Z,22.48
2023-04-02T12:10:35.662Z,23.80
2023-04-02T12:13:04.990Z,19.50
2023-04-02T12:15:42.796Z,20.38
2023-04-02T12:18:18.066Z,19.83
2023-04-02T12:20:54.386Z,21.98
2023-04-02T12:23:41.733Z,21.27
2023-04-02T12:26:31.120Z,22.40
2023-04-02T12:29:28.311Z,21.83
2023-04-02T12:31:59.656Z,20.23
2023-04-02T12:34:31.581Z,20.33
2023-04-02T12:37:06.922Z,18.92
2023-04-02T12:39:37.585Z,24.73
2023-04-02T12:42:08.003Z,22.25
2023-04-02T12:44:37.292Z,30.75
2023-04-02T12:47:07.497Z,44.60
2023-04-02T12:49:39.578Z,22.50
2023-04-02T12:52:15.972Z,19.95
2023-04-02T12:55:00.336Z,20.45
2023-04-02T12:57:32.746Z,16.65
2023-04-02T13:00:29.114Z,16.65
2023-04-02T13:03:30.350Z,17.45
